Terminal Aerodrome Forecast
Issued by NWS

Home | Current Version | Previous Version | Text Only | Print | Product List | Glossary On
Versions: 1 2 3 4 5 6 7 8 9 10 11 12
000
FTUS45 KPSR 042320
TAFIWA
TAF
KIWA 042320Z 0500/0524 15014G22KT P6SM SKC
     FM050100 23012G22KT P6SM SKC
     FM050400 29006KT P6SM SKC
     FM050700 12007KT P6SM FEW250
     FM051700 17014G22KT P6SM FEW250
     FM052100 22018G26KT P6SM FEW250
      AMD LTD TO CLD VIS AND WIND 0503/0513=

USA.gov is the U.S. government's official web portal to all federal, state and local government web resources and services.